sensor_id;sensor_type;location;lat;lon;timestamp;temperature;humidity
10129;DHT22;5104;50.720;7.044;2022-10-14T00:01:13;13.00;99.90
10129;DHT22;5104;50.720;7.044;2022-10-14T00:03:40;13.00;99.90
10129;DHT22;5104;50.720;7.044;2022-10-14T00:06:11;13.00;99.90
10129;DHT22;5104;50.720;7.044;2022-10-14T00:08:38;13.00;99.90
10129;DHT22;5104;50.720;7.044;2022-10-14T00:11:07;13.00;99.90
10129;DHT22;5104;50.720;7.044;2022-10-14T00:13:35;13.00;99.90
10129;DHT22;5104;50.720;7.044;2022-10-14T00:16:02;13.00;99.90
10129;DHT22;5104;50.720;7.044;2022-10-14T00:18:29;13.00;99.90
10129;DHT22;5104;50.720;7.044;2022-10-14T00:20:57;13.00;99.90
10129;DHT22;5104;50.720;7.044;2022-10-14T00:23:26;13.00;99.90
10129;DHT22;5104;50.720;7.044;2022-10-14T00:25:53;13.00;99.90
10129;DHT22;5104;50.720;7.044;2022-10-14T00:28:20;13.00;99.90
10129;DHT22;5104;50.720;7.044;2022-10-14T00:30:54;13.00;99.90
10129;DHT22;5104;50.720;7.044;2022-10-14T00:33:21;13.00;99.90
10129;DHT22;5104;50.720;7.044;2022-10-14T00:35:56;13.10;99.90
10129;DHT22;5104;50.720;7.044;2022-10-14T00:38:23;13.10;99.90
10129;DHT22;5104;50.720;7.044;2022-10-14T00:40:52;13.10;99.90
10129;DHT22;5104;50.720;7.044;2022-10-14T00:43:20;13.10;99.90
10129;DHT22;5104;50.720;7.044;2022-10-14T00:45:47;13.10;99.90
10129;DHT22;5104;50.720;7.044;2022-10-14T00:48:14;13.10;99.90
10129;DHT22;5104;50.720;7.044;2022-10-14T00:50:44;13.10;99.90
10129;DHT22;5104;50.720;7.044;2022-10-14T00:53:12;13.20;99.90
10129;DHT22;5104;50.720;7.044;2022-10-14T00:55:41;13.20;99.90
10129;DHT22;5104;50.720;7.044;2022-10-14T00:58:10;13.20;99.90
10129;DHT22;5104;50.720;7.044;2022-10-14T01:00:37;13.20;99.90
10129;DHT22;5104;50.720;7.044;2022-10-14T01:03:07;13.20;99.90
10129;DHT22;5104;50.720;7.044;2022-10-14T01:05:39;13.20;99.90
10129;DHT22;5104;50.720;7.044;2022-10-14T01:08:09;13.20;99.90
10129;DHT22;5104;50.720;7.044;2022-10-14T01:10:42;13.30;99.90
10129;DHT22;5104;50.720;7.044;2022-10-14T01:13:19;13.30;99.90
10129;DHT22;5104;50.720;7.044;2022-10-14T01:15:55;13.30;99.90
10129;DHT22;5104;50.720;7.044;2022-10-14T01:18:36;13.30;99.90
10129;DHT22;5104;50.720;7.044;2022-10-14T01:21:16;13.30;99.90
10129;DHT22;5104;50.720;7.044;2022-10-14T01:24:09;13.30;99.90
10129;DHT22;5104;50.720;7.044;2022-10-14T01:32:35;13.40;99.90
10129;DHT22;5104;50.720;7.044;2022-10-14T01:35:09;13.40;99.90
10129;DHT22;5104;50.720;7.044;2022-10-14T01:37:44;13.40;99.90
10129;DHT22;5104;50.720;7.044;2022-10-14T01:40:19;13.40;99.90
10129;DHT22;5104;50.720;7.044;2022-10-14T01:42:47;13.40;99.90
10129;DHT22;5104;50.720;7.044;2022-10-14T01:45:19;13.40;99.90
10129;DHT22;5104;50.720;7.044;2022-10-14T01:47:49;13.40;99.90
10129;DHT22;5104;50.720;7.044;2022-10-14T01:50:19;13.30;99.90
10129;DHT22;5104;50.720;7.044;2022-10-14T01:52:49;13.30;99.90
10129;DHT22;5104;50.720;7.044;2022-10-14T01:55:21;13.20;99.90
10129;DHT22;5104;50.720;7.044;2022-10-14T01:57:50;13.10;99.90
10129;DHT22;5104;50.720;7.044;2022-10-14T02:00:17;13.00;99.90
10129;DHT22;5104;50.720;7.044;2022-10-14T02:02:44;12.90;99.90
10129;DHT22;5104;50.720;7.044;2022-10-14T02:05:16;12.80;99.90
10129;DHT22;5104;50.720;7.044;2022-10-14T02:07:47;12.90;99.90
10129;DHT22;5104;50.720;7.044;2022-10-14T02:10:23;12.90;99.90
10129;DHT22;5104;50.720;7.044;2022-10-14T02:13:06;12.90;99.90
10129;DHT22;5104;50.720;7.044;2022-10-14T02:15:42;13.00;99.90
10129;DHT22;5104;50.720;7.044;2022-10-14T02:18:15;13.00;99.90
10129;DHT22;5104;50.720;7.044;2022-10-14T02:20:52;13.00;99.90
10129;DHT22;5104;50.720;7.044;2022-10-14T02:23:24;13.10;99.90
10129;DHT22;5104;50.720;7.044;2022-10-14T02:25:54;13.10;99.90
10129;DHT22;5104;50.720;7.044;2022-10-14T02:28:25;13.10;99.90
10129;DHT22;5104;50.720;7.044;2022-10-14T02:30:56;13.10;99.90
10129;DHT22;5104;50.720;7.044;2022-10-14T02:33:27;13.10;99.90
10129;DHT22;5104;50.720;7.044;2022-10-14T02:35:56;13.10;99.90
10129;DHT22;5104;50.720;7.044;2022-10-14T02:38:24;13.10;99.90
10129;DHT22;5104;50.720;7.044;2022-10-14T02:40:51;13.20;99.90
10129;DHT22;5104;50.720;7.044;2022-10-14T02:43:19;13.10;99.90
10129;DHT22;5104;50.720;7.044;2022-10-14T02:45:46;13.10;99.90
10129;DHT22;5104;50.720;7.044;2022-10-14T02:48:12;13.00;99.90
10129;DHT22;5104;50.720;7.044;2022-10-14T02:50:40;12.90;99.90
10129;DHT22;5104;50.720;7.044;2022-10-14T02:53:12;12.90;99.90
10129;DHT22;5104;50.720;7.044;2022-10-14T02:55:39;12.80;99.90
10129;DHT22;5104;50.720;7.044;2022-10-14T02:58:06;12.70;99.90
10129;DHT22;5104;50.720;7.044;2022-10-14T03:00:33;12.60;99.90
10129;DHT22;5104;50.720;7.044;2022-10-14T03:03:00;12.60;99.90
10129;DHT22;5104;50.720;7.044;2022-10-14T03:05:27;12.60;99.90
10129;DHT22;5104;50.720;7.044;2022-10-14T03:07:54;12.60;99.90
10129;DHT22;5104;50.720;7.044;2022-10-14T03:10:22;12.60;99.90
10129;DHT22;5104;50.720;7.044;2022-10-14T03:12:49;12.70;99.90
10129;DHT22;5104;50.720;7.044;2022-10-14T03:15:16;12.70;99.90
10129;DHT22;5104;50.720;7.044;2022-10-14T03:17:43;12.80;99.90
10129;DHT22;5104;50.720;7.044;2022-10-14T03:20:10;12.90;99.90
10129;DHT22;5104;50.720;7.044;2022-10-14T03:22:37;12.90;99.90
10129;DHT22;5104;50.720;7.044;2022-10-14T03:25:04;12.90;99.90
10129;DHT22;5104;50.720;7.044;2022-10-14T03:27:33;13.00;99.90
10129;DHT22;5104;50.720;7.044;2022-10-14T03:30:00;13.10;99.90
10129;DHT22;5104;50.720;7.044;2022-10-14T03:32:26;13.10;99.90
10129;DHT22;5104;50.720;7.044;2022-10-14T03:34:53;13.10;99.90
10129;DHT22;5104;50.720;7.044;2022-10-14T03:37:20;13.20;99.90
10129;DHT22;5104;50.720;7.044;2022-10-14T03:39:47;13.20;99.90
10129;DHT22;5104;50.720;7.044;2022-10-14T03:42:14;13.20;99.90
10129;DHT22;5104;50.720;7.044;2022-10-14T03:44:42;13.20;99.90
10129;DHT22;5104;50.720;7.044;2022-10-14T03:47:09;13.20;99.90
10129;DHT22;5104;50.720;7.044;2022-10-14T03:49:36;13.30;99.90
10129;DHT22;5104;50.720;7.044;2022-10-14T03:52:03;13.30;99.90
10129;DHT22;5104;50.720;7.044;2022-10-14T03:54:30;13.30;99.90
10129;DHT22;5104;50.720;7.044;2022-10-14T03:56:56;13.30;99.90
10129;DHT22;5104;50.720;7.044;2022-10-14T03:59:23;13.30;99.90
10129;DHT22;5104;50.720;7.044;2022-10-14T04:01:51;13.30;99.90
10129;DHT22;5104;50.720;7.044;2022-10-14T04:04:18;13.30;99.90
10129;DHT22;5104;50.720;7.044;2022-10-14T04:06:45;13.30;99.90
10129;DHT22;5104;50.720;7.044;2022-10-14T04:09:12;13.40;99.90
10129;DHT22;5104;50.720;7.044;2022-10-14T04:11:39;13.30;99.90
10129;DHT22;5104;50.720;7.044;2022-10-14T04:14:05;13.40;99.90
10129;DHT22;5104;50.720;7.044;2022-10-14T04:16:32;13.40;99.90
10129;DHT22;5104;50.720;7.044;2022-10-14T04:19:00;13.40;99.90
10129;DHT22;5104;50.720;7.044;2022-10-14T04:21:27;13.40;99.90
10129;DHT22;5104;50.720;7.044;2022-10-14T04:23:54;13.30;99.90
10129;DHT22;5104;50.720;7.044;2022-10-14T04:26:21;13.30;99.90
10129;DHT22;5104;50.720;7.044;2022-10-14T04:28:47;13.30;99.90
10129;DHT22;5104;50.720;7.044;2022-10-14T04:31:15;13.30;99.90
10129;DHT22;5104;50.720;7.044;2022-10-14T04:33:41;13.30;99.90
10129;DHT22;5104;50.720;7.044;2022-10-14T04:36:10;13.20;99.90
10129;DHT22;5104;50.720;7.044;2022-10-14T04:38:37;13.20;99.90
10129;DHT22;5104;50.720;7.044;2022-10-14T04:41:04;13.20;99.90
10129;DHT22;5104;50.720;7.044;2022-10-14T04:43:31;13.20;99.90
10129;DHT22;5104;50.720;7.044;2022-10-14T04:45:58;13.20;99.90
10129;DHT22;5104;50.720;7.044;2022-10-14T04:48:24;13.20;99.90
10129;DHT22;5104;50.720;7.044;2022-10-14T04:50:52;13.20;99.90
10129;DHT22;5104;50.720;7.044;2022-10-14T04:53:20;13.20;99.90
10129;DHT22;5104;50.720;7.044;2022-10-14T04:55:47;13.20;99.90
10129;DHT22;5104;50.720;7.044;2022-10-14T04:58:15;13.20;99.90
10129;DHT22;5104;50.720;7.044;2022-10-14T05:00:42;13.30;99.90
10129;DHT22;5104;50.720;7.044;2022-10-14T05:03:09;13.30;99.90
10129;DHT22;5104;50.720;7.044;2022-10-14T05:05:36;13.30;99.90
10129;DHT22;5104;50.720;7.044;2022-10-14T05:08:03;13.30;99.90
10129;DHT22;5104;50.720;7.044;2022-10-14T05:10:31;13.30;99.90
10129;DHT22;5104;50.720;7.044;2022-10-14T05:12:58;13.20;99.90
10129;DHT22;5104;50.720;7.044;2022-10-14T05:15:25;13.30;99.90
10129;DHT22;5104;50.720;7.044;2022-10-14T05:17:51;13.30;99.90
10129;DHT22;5104;50.720;7.044;2022-10-14T05:20:18;13.30;99.90
10129;DHT22;5104;50.720;7.044;2022-10-14T05:22:45;13.30;99.90
10129;DHT22;5104;50.720;7.044;2022-10-14T05:25:12;13.30;99.90
10129;DHT22;5104;50.720;7.044;2022-10-14T05:27:40;13.30;99.90
10129;DHT22;5104;50.720;7.044;2022-10-14T05:30:08;13.30;99.90
10129;DHT22;5104;50.720;7.044;2022-10-14T05:32:35;13.30;99.90
10129;DHT22;5104;50.720;7.044;2022-10-14T05:35:03;13.20;99.90
10129;DHT22;5104;50.720;7.044;2022-10-14T05:37:30;13.20;99.90
10129;DHT22;5104;50.720;7.044;2022-10-14T05:39:57;13.20;99.90
10129;DHT22;5104;50.720;7.044;2022-10-14T05:42:24;13.20;99.90
10129;DHT22;5104;50.720;7.044;2022-10-14T05:44:52;13.20;99.90
10129;DHT22;5104;50.720;7.044;2022-10-14T05:47:19;13.20;99.90
10129;DHT22;5104;50.720;7.044;2022-10-14T05:49:46;13.20;99.90
10129;DHT22;5104;50.720;7.044;2022-10-14T05:52:12;13.20;99.90
10129;DHT22;5104;50.720;7.044;2022-10-14T05:54:39;13.20;99.90
10129;DHT22;5104;50.720;7.044;2022-10-14T05:57:06;13.20;99.90
10129;DHT22;5104;50.720;7.044;2022-10-14T05:59:33;13.20;99.90
10129;DHT22;5104;50.720;7.044;2022-10-14T06:02:03;13.20;99.90
10129;DHT22;5104;50.720;7.044;2022-10-14T06:04:30;13.20;99.90
10129;DHT22;5104;50.720;7.044;2022-10-14T06:06:58;13.20;99.90
10129;DHT22;5104;50.720;7.044;2022-10-14T06:09:25;13.20;99.90
10129;DHT22;5104;50.720;7.044;2022-10-14T06:11:52;13.30;99.90
10129;DHT22;5104;50.720;7.044;2022-10-14T06:14:18;13.20;99.90
10129;DHT22;5104;50.720;7.044;2022-10-14T06:16:48;13.30;99.90
10129;DHT22;5104;50.720;7.044;2022-10-14T06:19:17;13.30;99.90
10129;DHT22;5104;50.720;7.044;2022-10-14T06:21:43;13.40;99.90
10129;DHT22;5104;50.720;7.044;2022-10-14T06:24:10;13.40;99.90
10129;DHT22;5104;50.720;7.044;2022-10-14T06:26:37;13.40;99.90
10129;DHT22;5104;50.720;7.044;2022-10-14T06:29:04;13.40;99.90
10129;DHT22;5104;50.720;7.044;2022-10-14T06:31:31;13.50;99.90
10129;DHT22;5104;50.720;7.044;2022-10-14T06:33:58;13.50;99.90
10129;DHT22;5104;50.720;7.044;2022-10-14T06:36:26;13.50;99.90
10129;DHT22;5104;50.720;7.044;2022-10-14T06:38:53;13.50;99.90
10129;DHT22;5104;50.720;7.044;2022-10-14T06:41:20;13.60;99.90
10129;DHT22;5104;50.720;7.044;2022-10-14T06:43:47;13.50;99.90
10129;DHT22;5104;50.720;7.044;2022-10-14T06:46:14;13.60;99.90
10129;DHT22;5104;50.720;7.044;2022-10-14T06:48:41;13.60;99.90
10129;DHT22;5104;50.720;7.044;2022-10-14T06:51:08;13.70;99.90
10129;DHT22;5104;50.720;7.044;2022-10-14T06:53:37;13.70;99.90
10129;DHT22;5104;50.720;7.044;2022-10-14T06:56:06;13.70;99.90
10129;DHT22;5104;50.720;7.044;2022-10-14T06:58:33;13.70;99.90
10129;DHT22;5104;50.720;7.044;2022-10-14T07:01:01;13.70;99.90
10129;DHT22;5104;50.720;7.044;2022-10-14T07:03:28;13.70;99.90
10129;DHT22;5104;50.720;7.044;2022-10-14T07:05:55;13.70;99.90
10129;DHT22;5104;50.720;7.044;2022-10-14T07:08:22;13.70;99.90
10129;DHT22;5104;50.720;7.044;2022-10-14T07:10:51;13.70;99.90
10129;DHT22;5104;50.720;7.044;2022-10-14T07:13:17;13.80;99.90
10129;DHT22;5104;50.720;7.044;2022-10-14T07:15:46;13.90;99.90
10129;DHT22;5104;50.720;7.044;2022-10-14T07:18:14;13.90;99.90
10129;DHT22;5104;50.720;7.044;2022-10-14T07:20:41;14.00;99.90
10129;DHT22;5104;50.720;7.044;2022-10-14T07:23:08;14.00;99.90
10129;DHT22;5104;50.720;7.044;2022-10-14T07:25:34;14.00;99.90
10129;DHT22;5104;50.720;7.044;2022-10-14T07:28:03;14.10;99.90
10129;DHT22;5104;50.720;7.044;2022-10-14T07:30:31;14.10;99.90
10129;DHT22;5104;50.720;7.044;2022-10-14T07:32:58;14.10;99.90
10129;DHT22;5104;50.720;7.044;2022-10-14T07:35:25;14.10;99.90
10129;DHT22;5104;50.720;7.044;2022-10-14T07:37:53;14.10;99.90
10129;DHT22;5104;50.720;7.044;2022-10-14T07:40:20;14.10;99.90
10129;DHT22;5104;50.720;7.044;2022-10-14T07:42:46;14.10;99.90
10129;DHT22;5104;50.720;7.044;2022-10-14T07:45:15;14.20;99.90
10129;DHT22;5104;50.720;7.044;2022-10-14T07:47:43;14.30;99.90
10129;DHT22;5104;50.720;7.044;2022-10-14T07:50:10;14.30;99.90
10129;DHT22;5104;50.720;7.044;2022-10-14T07:52:37;14.40;99.90
10129;DHT22;5104;50.720;7.044;2022-10-14T07:55:05;14.40;99.90
10129;DHT22;5104;50.720;7.044;2022-10-14T07:57:32;14.50;99.90
10129;DHT22;5104;50.720;7.044;2022-10-14T07:59:59;14.50;99.90
10129;DHT22;5104;50.720;7.044;2022-10-14T08:02:27;14.40;99.90
10129;DHT22;5104;50.720;7.044;2022-10-14T08:04:54;14.50;99.90
10129;DHT22;5104;50.720;7.044;2022-10-14T08:07:21;14.50;99.90
10129;DHT22;5104;50.720;7.044;2022-10-14T08:09:49;14.50;99.90
10129;DHT22;5104;50.720;7.044;2022-10-14T08:12:18;14.60;99.90
10129;DHT22;5104;50.720;7.044;2022-10-14T08:14:45;14.60;99.90
10129;DHT22;5104;50.720;7.044;2022-10-14T08:17:12;14.60;99.90
10129;DHT22;5104;50.720;7.044;2022-10-14T08:19:40;14.60;99.90
10129;DHT22;5104;50.720;7.044;2022-10-14T08:22:08;14.70;99.90
10129;DHT22;5104;50.720;7.044;2022-10-14T08:24:34;14.80;99.90
10129;DHT22;5104;50.720;7.044;2022-10-14T08:27:01;14.80;99.90
10129;DHT22;5104;50.720;7.044;2022-10-14T08:29:30;14.80;99.90
10129;DHT22;5104;50.720;7.044;2022-10-14T08:31:56;14.90;99.90
10129;DHT22;5104;50.720;7.044;2022-10-14T08:34:23;14.90;99.90
10129;DHT22;5104;50.720;7.044;2022-10-14T08:36:52;15.00;99.90
10129;DHT22;5104;50.720;7.044;2022-10-14T08:39:19;15.00;99.90
10129;DHT22;5104;50.720;7.044;2022-10-14T08:42:06;15.10;99.90
10129;DHT22;5104;50.720;7.044;2022-10-14T08:44:41;15.30;99.90
10129;DHT22;5104;50.720;7.044;2022-10-14T08:47:13;15.40;99.90
10129;DHT22;5104;50.720;7.044;2022-10-14T08:49:56;15.60;99.90
10129;DHT22;5104;50.720;7.044;2022-10-14T08:52:31;15.50;99.90
10129;DHT22;5104;50.720;7.044;2022-10-14T08:55:04;15.60;99.90
10129;DHT22;5104;50.720;7.044;2022-10-14T08:57:41;15.60;99.90
10129;DHT22;5104;50.720;7.044;2022-10-14T09:00:10;15.50;99.90
10129;DHT22;5104;50.720;7.044;2022-10-14T09:02:43;15.40;99.90
10129;DHT22;5104;50.720;7.044;2022-10-14T09:05:13;15.30;99.90
10129;DHT22;5104;50.720;7.044;2022-10-14T09:07:43;15.30;99.90
10129;DHT22;5104;50.720;7.044;2022-10-14T09:10:14;15.30;99.90
10129;DHT22;5104;50.720;7.044;2022-10-14T09:12:44;15.40;99.90
10129;DHT22;5104;50.720;7.044;2022-10-14T09:15:17;15.50;99.90
10129;DHT22;5104;50.720;7.044;2022-10-14T09:17:50;15.70;99.90
10129;DHT22;5104;50.720;7.044;2022-10-14T09:20:20;15.60;99.90
10129;DHT22;5104;50.720;7.044;2022-10-14T09:22:58;15.80;99.90
10129;DHT22;5104;50.720;7.044;2022-10-14T09:25:29;15.90;99.90
10129;DHT22;5104;50.720;7.044;2022-10-14T09:28:01;15.90;99.90
10129;DHT22;5104;50.720;7.044;2022-10-14T09:30:33;16.00;99.90
10129;DHT22;5104;50.720;7.044;2022-10-14T09:33:03;16.10;99.90
10129;DHT22;5104;50.720;7.044;2022-10-14T09:35:33;16.00;99.90
10129;DHT22;5104;50.720;7.044;2022-10-14T09:38:03;16.10;99.90
10129;DHT22;5104;50.720;7.044;2022-10-14T09:40:37;16.00;99.90
10129;DHT22;5104;50.720;7.044;2022-10-14T09:43:14;16.10;99.90
10129;DHT22;5104;50.720;7.044;2022-10-14T09:45:51;15.90;99.90
10129;DHT22;5104;50.720;7.044;2022-10-14T09:48:28;15.90;99.90
10129;DHT22;5104;50.720;7.044;2022-10-14T09:50:57;15.90;99.90
10129;DHT22;5104;50.720;7.044;2022-10-14T09:53:31;16.00;99.90
10129;DHT22;5104;50.720;7.044;2022-10-14T09:56:01;15.90;99.90
10129;DHT22;5104;50.720;7.044;2022-10-14T09:58:31;16.00;99.90
10129;DHT22;5104;50.720;7.044;2022-10-14T10:01:00;16.20;99.90
10129;DHT22;5104;50.720;7.044;2022-10-14T10:03:28;16.00;99.90
10129;DHT22;5104;50.720;7.044;2022-10-14T10:06:05;16.20;99.90
10129;DHT22;5104;50.720;7.044;2022-10-14T10:08:36;16.30;99.90
10129;DHT22;5104;50.720;7.044;2022-10-14T10:11:05;16.20;99.90
10129;DHT22;5104;50.720;7.044;2022-10-14T10:13:36;16.30;99.90
10129;DHT22;5104;50.720;7.044;2022-10-14T10:16:15;16.30;99.90
10129;DHT22;5104;50.720;7.044;2022-10-14T10:18:44;16.40;99.90
10129;DHT22;5104;50.720;7.044;2022-10-14T10:21:15;16.40;99.90
10129;DHT22;5104;50.720;7.044;2022-10-14T10:23:55;16.20;99.90
10129;DHT22;5104;50.720;7.044;2022-10-14T10:26:24;16.20;99.90
10129;DHT22;5104;50.720;7.044;2022-10-14T10:28:53;16.20;99.90
10129;DHT22;5104;50.720;7.044;2022-10-14T10:31:45;16.20;99.90
10129;DHT22;5104;50.720;7.044;2022-10-14T10:37:27;16.00;99.90
10129;DHT22;5104;50.720;7.044;2022-10-14T10:40:07;16.10;99.90
10129;DHT22;5104;50.720;7.044;2022-10-14T10:42:44;16.10;99.90
10129;DHT22;5104;50.720;7.044;2022-10-14T10:45:15;16.00;99.90
10129;DHT22;5104;50.720;7.044;2022-10-14T10:47:53;16.00;99.90
10129;DHT22;5104;50.720;7.044;2022-10-14T10:50:32;15.90;99.90
10129;DHT22;5104;50.720;7.044;2022-10-14T10:53:26;15.90;99.90
10129;DHT22;5104;50.720;7.044;2022-10-14T10:56:06;15.90;99.90
10129;DHT22;5104;50.720;7.044;2022-10-14T10:58:40;15.90;99.90
10129;DHT22;5104;50.720;7.044;2022-10-14T11:01:16;16.00;99.90
10129;DHT22;5104;50.720;7.044;2022-10-14T11:03:55;16.00;99.90
10129;DHT22;5104;50.720;7.044;2022-10-14T11:06:32;16.10;99.90
10129;DHT22;5104;50.720;7.044;2022-10-14T11:09:27;16.20;99.90
10129;DHT22;5104;50.720;7.044;2022-10-14T11:12:19;16.20;99.90
10129;DHT22;5104;50.720;7.044;2022-10-14T11:15:04;16.30;99.90
10129;DHT22;5104;50.720;7.044;2022-10-14T11:17:38;16.30;99.90
10129;DHT22;5104;50.720;7.044;2022-10-14T11:20:30;16.40;99.90
10129;DHT22;5104;50.720;7.044;2022-10-14T11:23:24;16.50;99.90
10129;DHT22;5104;50.720;7.044;2022-10-14T11:25:59;16.30;99.90
10129;DHT22;5104;50.720;7.044;2022-10-14T11:28:36;16.30;99.90
10129;DHT22;5104;50.720;7.044;2022-10-14T11:31:12;16.30;99.90
10129;DHT22;5104;50.720;7.044;2022-10-14T11:33:52;16.20;99.90
10129;DHT22;5104;50.720;7.044;2022-10-14T11:36:27;16.10;99.90
10129;DHT22;5104;50.720;7.044;2022-10-14T11:39:22;16.00;99.90
10129;DHT22;5104;50.720;7.044;2022-10-14T11:42:02;16.00;99.90
10129;DHT22;5104;50.720;7.044;2022-10-14T11:44:35;16.00;99.90
10129;DHT22;5104;50.720;7.044;2022-10-14T11:47:08;16.00;99.90
10129;DHT22;5104;50.720;7.044;2022-10-14T11:49:43;16.00;99.90
10129;DHT22;5104;50.720;7.044;2022-10-14T11:52:16;16.10;99.90
10129;DHT22;5104;50.720;7.044;2022-10-14T11:54:49;16.00;99.90
10129;DHT22;5104;50.720;7.044;2022-10-14T11:57:23;16.00;99.90
10129;DHT22;5104;50.720;7.044;2022-10-14T12:00:12;16.00;99.90
10129;DHT22;5104;50.720;7.044;2022-10-14T12:02:45;16.10;99.90
10129;DHT22;5104;50.720;7.044;2022-10-14T12:05:17;16.10;99.90
10129;DHT22;5104;50.720;7.044;2022-10-14T12:07:52;16.10;99.90
10129;DHT22;5104;50.720;7.044;2022-10-14T12:10:25;16.20;99.90
10129;DHT22;5104;50.720;7.044;2022-10-14T12:12:55;16.20;99.90
10129;DHT22;5104;50.720;7.044;2022-10-14T12:15:25;16.20;99.90
10129;DHT22;5104;50.720;7.044;2022-10-14T12:17:53;16.20;99.90
10129;DHT22;5104;50.720;7.044;2022-10-14T12:20:28;16.20;99.90
10129;DHT22;5104;50.720;7.044;2022-10-14T12:22:58;16.20;99.90
10129;DHT22;5104;50.720;7.044;2022-10-14T12:25:29;16.30;99.90
10129;DHT22;5104;50.720;7.044;2022-10-14T12:27:58;16.20;99.90
10129;DHT22;5104;50.720;7.044;2022-10-14T12:30:34;16.30;99.90
10129;DHT22;5104;50.720;7.044;2022-10-14T12:33:03;16.20;99.90
10129;DHT22;5104;50.720;7.044;2022-10-14T12:35:51;16.30;99.90
10129;DHT22;5104;50.720;7.044;2022-10-14T12:38:20;16.30;99.90
10129;DHT22;5104;50.720;7.044;2022-10-14T12:40:47;16.30;99.90
10129;DHT22;5104;50.720;7.044;2022-10-14T12:43:23;16.30;99.90
10129;DHT22;5104;50.720;7.044;2022-10-14T12:46:02;16.40;99.90
10129;DHT22;5104;50.720;7.044;2022-10-14T12:48:35;16.30;99.90
10129;DHT22;5104;50.720;7.044;2022-10-14T12:51:10;16.30;99.90
10129;DHT22;5104;50.720;7.044;2022-10-14T12:53:39;16.30;99.90
10129;DHT22;5104;50.720;7.044;2022-10-14T12:56:28;16.40;99.90
10129;DHT22;5104;50.720;7.044;2022-10-14T12:58:57;16.40;99.90
10129;DHT22;5104;50.720;7.044;2022-10-14T13:01:28;16.40;99.90
10129;DHT22;5104;50.720;7.044;2022-10-14T13:03:58;16.40;99.90
10129;DHT22;5104;50.720;7.044;2022-10-14T13:06:32;16.40;99.90
10129;DHT22;5104;50.720;7.044;2022-10-14T13:09:34;16.40;99.90
10129;DHT22;5104;50.720;7.044;2022-10-14T13:15:35;16.50;99.90
10129;DHT22;5104;50.720;7.044;2022-10-14T13:21:08;16.80;99.90
10129;DHT22;5104;50.720;7.044;2022-10-14T13:23:38;16.80;99.90
10129;DHT22;5104;50.720;7.044;2022-10-14T13:26:22;16.80;99.90
10129;DHT22;5104;50.720;7.044;2022-10-14T13:29:01;16.90;99.90
10129;DHT22;5104;50.720;7.044;2022-10-14T13:31:36;17.00;99.90
10129;DHT22;5104;50.720;7.044;2022-10-14T13:34:28;17.10;99.90
10129;DHT22;5104;50.720;7.044;2022-10-14T13:37:13;17.10;99.90
10129;DHT22;5104;50.720;7.044;2022-10-14T13:39:45;17.20;99.90
10129;DHT22;5104;50.720;7.044;2022-10-14T13:42:18;17.40;99.90
10129;DHT22;5104;50.720;7.044;2022-10-14T13:44:48;17.60;99.90
10129;DHT22;5104;50.720;7.044;2022-10-14T13:47:19;17.90;99.90
10129;DHT22;5104;50.720;7.044;2022-10-14T13:49:48;18.00;99.90
10129;DHT22;5104;50.720;7.044;2022-10-14T13:52:19;18.10;99.90
10129;DHT22;5104;50.720;7.044;2022-10-14T13:54:48;18.40;99.90
10129;DHT22;5104;50.720;7.044;2022-10-14T13:57:30;18.40;99.90
10129;DHT22;5104;50.720;7.044;2022-10-14T13:59:57;18.40;99.90
10129;DHT22;5104;50.720;7.044;2022-10-14T14:02:26;18.20;99.90
10129;DHT22;5104;50.720;7.044;2022-10-14T14:04:56;18.10;99.90
10129;DHT22;5104;50.720;7.044;2022-10-14T14:07:30;18.10;99.90
10129;DHT22;5104;50.720;7.044;2022-10-14T14:10:02;18.20;99.90
10129;DHT22;5104;50.720;7.044;2022-10-14T14:12:31;18.20;99.90
10129;DHT22;5104;50.720;7.044;2022-10-14T14:14:59;18.30;99.90
10129;DHT22;5104;50.720;7.044;2022-10-14T14:17:30;18.20;99.90
10129;DHT22;5104;50.720;7.044;2022-10-14T14:19:58;18.00;99.90
10129;DHT22;5104;50.720;7.044;2022-10-14T14:22:27;17.90;99.90
10129;DHT22;5104;50.720;7.044;2022-10-14T14:25:09;17.80;99.90
10129;DHT22;5104;50.720;7.044;2022-10-14T14:27:42;17.80;99.90
10129;DHT22;5104;50.720;7.044;2022-10-14T14:30:20;17.70;99.90
10129;DHT22;5104;50.720;7.044;2022-10-14T14:32:49;17.60;99.90
10129;DHT22;5104;50.720;7.044;2022-10-14T14:35:17;17.50;99.90
10129;DHT22;5104;50.720;7.044;2022-10-14T14:37:45;17.50;99.90
10129;DHT22;5104;50.720;7.044;2022-10-14T14:40:16;17.40;99.90
10129;DHT22;5104;50.720;7.044;2022-10-14T14:42:45;17.50;99.90
10129;DHT22;5104;50.720;7.044;2022-10-14T14:45:14;17.30;99.90
10129;DHT22;5104;50.720;7.044;2022-10-14T14:47:43;17.30;99.90
10129;DHT22;5104;50.720;7.044;2022-10-14T14:50:15;17.30;99.90
10129;DHT22;5104;50.720;7.044;2022-10-14T14:52:43;17.30;99.90
10129;DHT22;5104;50.720;7.044;2022-10-14T14:55:34;17.20;99.90
10129;DHT22;5104;50.720;7.044;2022-10-14T14:58:12;17.10;99.90
10129;DHT22;5104;50.720;7.044;2022-10-14T15:00:46;17.00;99.90
10129;DHT22;5104;50.720;7.044;2022-10-14T15:03:14;16.90;99.90
10129;DHT22;5104;50.720;7.044;2022-10-14T15:05:50;16.90;99.90
10129;DHT22;5104;50.720;7.044;2022-10-14T15:08:22;16.90;99.90
10129;DHT22;5104;50.720;7.044;2022-10-14T15:10:50;16.90;99.90
10129;DHT22;5104;50.720;7.044;2022-10-14T15:13:30;17.00;99.90
10129;DHT22;5104;50.720;7.044;2022-10-14T15:15:58;17.00;99.90
10129;DHT22;5104;50.720;7.044;2022-10-14T15:18:26;16.90;99.90
10129;DHT22;5104;50.720;7.044;2022-10-14T15:21:15;17.00;99.90
10129;DHT22;5104;50.720;7.044;2022-10-14T15:23:58;17.00;99.90
10129;DHT22;5104;50.720;7.044;2022-10-14T15:26:32;17.00;99.90
10129;DHT22;5104;50.720;7.044;2022-10-14T15:29:11;17.00;99.90
10129;DHT22;5104;50.720;7.044;2022-10-14T15:31:39;17.00;99.90
10129;DHT22;5104;50.720;7.044;2022-10-14T15:34:19;17.00;99.90
10129;DHT22;5104;50.720;7.044;2022-10-14T15:36:50;16.90;99.90
10129;DHT22;5104;50.720;7.044;2022-10-14T15:39:19;16.80;99.90
10129;DHT22;5104;50.720;7.044;2022-10-14T15:41:46;16.80;99.90
10129;DHT22;5104;50.720;7.044;2022-10-14T15:44:13;16.80;99.90
10129;DHT22;5104;50.720;7.044;2022-10-14T15:46:41;16.70;99.90
10129;DHT22;5104;50.720;7.044;2022-10-14T15:49:29;16.70;99.90
10129;DHT22;5104;50.720;7.044;2022-10-14T15:51:58;16.50;99.90
10129;DHT22;5104;50.720;7.044;2022-10-14T15:54:24;16.40;99.90
10129;DHT22;5104;50.720;7.044;2022-10-14T15:56:53;16.30;99.90
10129;DHT22;5104;50.720;7.044;2022-10-14T15:59:20;16.30;99.90
10129;DHT22;5104;50.720;7.044;2022-10-14T16:01:47;16.20;99.90
10129;DHT22;5104;50.720;7.044;2022-10-14T16:04:17;16.20;99.90
10129;DHT22;5104;50.720;7.044;2022-10-14T16:06:47;16.20;99.90
10129;DHT22;5104;50.720;7.044;2022-10-14T16:09:15;16.10;99.90
10129;DHT22;5104;50.720;7.044;2022-10-14T16:11:42;16.10;99.90
10129;DHT22;5104;50.720;7.044;2022-10-14T16:14:09;16.00;99.90
10129;DHT22;5104;50.720;7.044;2022-10-14T16:16:41;16.00;99.90
10129;DHT22;5104;50.720;7.044;2022-10-14T16:19:09;15.90;99.90
10129;DHT22;5104;50.720;7.044;2022-10-14T16:21:37;15.90;99.90
10129;DHT22;5104;50.720;7.044;2022-10-14T16:24:05;15.90;99.90